Time;durP1;ratioP1;P1;durP2;ratioP2;P2;SDS_P1;SDS_P2;PMS_P1;PMS_P2;Temp;Humidity;BMP_temperature;BMP_pressure;BME280_temperature;BME280_humidity;BME280_pressure;Samples;Min_cycle;Max_cycle;Signal;HPM_P1;HPM_P2
2022/09/30 00:01:21;;;;;;;9.35;6.13;;;;;;;;;;4980707;28;20026;-84
2022/09/30 00:03:48;;;;;;;9.13;5.70;;;;;;;;;;4966035;28;20042;-83
2022/09/30 00:06:14;;;;;;;10.55;5.93;;;;;;;;;;4982131;28;20497;-83
2022/09/30 00:08:39;;;;;;;8.02;5.45;;;;;;;;;;4990997;28;20069;-83
2022/09/30 00:11:08;;;;;;;9.63;6.28;;;;;;;;;;4972526;28;20073;-83
2022/09/30 00:13:39;;;;;;;10.63;6.18;;;;;;;;;;4967051;28;20076;-83
2022/09/30 00:16:08;;;;;;;8.73;5.63;;;;;;;;;;4967701;28;20049;-83
2022/09/30 00:18:34;;;;;;;9.40;6.32;;;;;;;;;;4989951;28;20037;-83
2022/09/30 00:20:59;;;;;;;9.55;5.75;;;;;;;;;;4973634;28;20033;-82
2022/09/30 00:23:25;;;;;;;9.48;6.07;;;;;;;;;;4971145;28;20579;-83
2022/09/30 00:25:56;;;;;;;10.35;6.00;;;;;;;;;;4989385;28;20112;-83
2022/09/30 00:28:22;;;;;;;9.23;6.22;;;;;;;;;;4973958;28;20041;-82
2022/09/30 00:30:50;;;;;;;7.95;5.25;;;;;;;;;;4968880;28;20042;-83
2022/09/30 00:33:15;;;;;;;9.73;5.80;;;;;;;;;;4986033;28;20097;-82
2022/09/30 00:35:40;;;;;;;9.25;5.82;;;;;;;;;;4986646;28;20050;-82
2022/09/30 00:38:06;;;;;;;8.43;5.57;;;;;;;;;;4972490;28;20045;-83
2022/09/30 00:40:31;;;;;;;8.93;5.80;;;;;;;;;;4972384;28;20030;-83
2022/09/30 00:42:58;;;;;;;9.00;6.00;;;;;;;;;;4978301;28;20501;-82
2022/09/30 00:45:26;;;;;;;8.18;5.40;;;;;;;;;;4975469;28;20074;-83
2022/09/30 00:47:52;;;;;;;8.82;5.65;;;;;;;;;;4985910;28;20119;-83
2022/09/30 00:50:32;;;;;;;9.32;5.68;;;;;;;;;;4976053;28;20182;-82
2022/09/30 00:53:26;;;;;;;9.25;6.38;;;;;;;;;;4987920;28;20095;-83
2022/09/30 00:56:06;;;;;;;9.18;5.75;;;;;;;;;;4924308;28;20046;-82
2022/09/30 00:58:43;;;;;;;10.55;6.45;;;;;;;;;;5006629;28;20088;-83
2022/09/30 01:01:09;;;;;;;10.32;6.20;;;;;;;;;;4979457;28;20553;-83
2022/09/30 01:03:48;;;;;;;10.20;6.25;;;;;;;;;;4982771;28;20042;-83
2022/09/30 01:06:14;;;;;;;10.45;6.43;;;;;;;;;;4988424;28;20577;-83
2022/09/30 01:08:40;;;;;;;9.43;6.10;;;;;;;;;;4968909;28;20045;-84
2022/09/30 01:11:08;;;;;;;9.98;6.25;;;;;;;;;;4973103;28;20130;-82
2022/09/30 01:13:34;;;;;;;11.23;6.65;;;;;;;;;;4964215;28;20050;-83
2022/09/30 01:16:33;;;;;;;10.23;6.47;;;;;;;;;;4979160;28;20034;-83
2022/09/30 01:19:04;;;;;;;10.38;6.38;;;;;;;;;;4972910;28;20040;-83
2022/09/30 01:21:52;;;;;;;10.82;6.78;;;;;;;;;;4995607;28;20030;-83
2022/09/30 01:24:36;;;;;;;9.60;6.38;;;;;;;;;;4988577;28;20085;-82
2022/09/30 01:27:04;;;;;;;12.45;7.10;;;;;;;;;;5004476;28;20048;-82
2022/09/30 01:29:52;;;;;;;12.45;7.00;;;;;;;;;;4976464;28;20549;-82
2022/09/30 01:32:28;;;;;;;12.57;7.82;;;;;;;;;;4968916;28;20072;-82
2022/09/30 01:35:00;;;;;;;11.10;6.93;;;;;;;;;;4990058;28;20516;-83
2022/09/30 01:37:37;;;;;;;10.95;7.28;;;;;;;;;;4990641;28;20101;-83
2022/09/30 01:40:34;;;;;;;11.93;7.22;;;;;;;;;;5008124;28;20034;-84
2022/09/30 01:43:06;;;;;;;11.23;6.85;;;;;;;;;;4973000;28;20045;-83
2022/09/30 01:45:41;;;;;;;11.18;7.47;;;;;;;;;;4972779;28;20038;-85
2022/09/30 01:48:13;;;;;;;13.23;7.28;;;;;;;;;;4984480;28;20058;-84
2022/09/30 01:50:47;;;;;;;11.60;6.95;;;;;;;;;;4988036;28;20068;-83
2022/09/30 01:53:44;;;;;;;12.73;7.88;;;;;;;;;;4981676;28;20084;-83
2022/09/30 01:56:28;;;;;;;13.40;7.80;;;;;;;;;;4976754;28;20034;-83
2022/09/30 01:58:58;;;;;;;12.25;8.05;;;;;;;;;;4987863;28;20050;-81
2022/09/30 02:01:30;;;;;;;12.77;8.20;;;;;;;;;;4971007;28;20151;-83
2022/09/30 02:03:58;;;;;;;12.52;8.40;;;;;;;;;;4973298;28;20041;-83
2022/09/30 02:06:25;;;;;;;;;;;;;;;;;;4973092;28;20552;-82
2022/09/30 02:08:56;;;;;;;11.77;7.60;;;;;;;;;;4990282;28;19921;-82
2022/09/30 02:11:27;;;;;;;11.25;7.35;;;;;;;;;;4988079;28;20049;-82
2022/09/30 02:13:59;;;;;;;11.90;7.00;;;;;;;;;;4969715;28;20046;-82
2022/09/30 02:16:31;;;;;;;13.00;7.65;;;;;;;;;;4993553;28;20026;-82
2022/09/30 02:19:27;;;;;;;13.18;8.00;;;;;;;;;;4970107;28;20398;-83
2022/09/30 02:21:59;;;;;;;11.13;7.15;;;;;;;;;;4996316;28;20492;-83
2022/09/30 02:24:26;;;;;;;12.40;7.97;;;;;;;;;;4978782;28;20123;-83
2022/09/30 02:26:53;;;;;;;12.95;7.70;;;;;;;;;;4986133;28;20041;-82
2022/09/30 02:29:33;;;;;;;11.10;7.13;;;;;;;;;;4992124;28;20038;-82
2022/09/30 02:32:04;;;;;;;11.95;7.35;;;;;;;;;;4985558;28;20056;-83
2022/09/30 02:34:36;;;;;;;10.07;7.13;;;;;;;;;;4991501;28;20083;-83
2022/09/30 02:37:09;;;;;;;12.25;7.53;;;;;;;;;;4981923;28;20422;-82
2022/09/30 02:39:47;;;;;;;11.55;7.07;;;;;;;;;;5011631;28;20058;-82
2022/09/30 02:42:19;;;;;;;10.25;6.72;;;;;;;;;;4975459;28;20045;-82
2022/09/30 02:44:46;;;;;;;12.48;7.22;;;;;;;;;;4979519;28;20405;-83
2022/09/30 02:47:16;;;;;;;12.07;7.57;;;;;;;;;;4971786;28;20081;-82
2022/09/30 02:49:47;;;;;;;10.75;6.80;;;;;;;;;;4977338;28;20073;-82
2022/09/30 02:52:22;;;;;;;10.82;7.55;;;;;;;;;;4988252;28;20061;-82
2022/09/30 02:55:00;;;;;;;10.32;6.72;;;;;;;;;;4983338;28;20460;-83
2022/09/30 02:57:56;;;;;;;12.20;7.47;;;;;;;;;;5001120;28;20042;-83
2022/09/30 03:00:22;;;;;;;10.02;6.57;;;;;;;;;;4994022;28;20516;-82
2022/09/30 03:02:49;;;;;;;10.95;6.53;;;;;;;;;;4992168;28;20033;-83
2022/09/30 03:05:17;;;;;;;12.10;7.17;;;;;;;;;;4977780;28;20511;-82
2022/09/30 03:07:42;;;;;;;12.18;6.93;;;;;;;;;;4984394;28;20493;-82
2022/09/30 03:10:17;;;;;;;12.27;7.82;;;;;;;;;;4993575;28;20046;-83
2022/09/30 03:12:57;;;;;;;10.43;7.00;;;;;;;;;;4980022;28;20509;-82
2022/09/30 03:15:34;;;;;;;10.57;6.40;;;;;;;;;;4994874;28;20115;-83
2022/09/30 03:18:25;;;;;;;11.02;6.70;;;;;;;;;;4981231;28;20042;-83
2022/09/30 03:21:15;;;;;;;11.57;7.35;;;;;;;;;;4998245;28;20042;-83
2022/09/30 03:23:43;;;;;;;11.68;6.90;;;;;;;;;;4997905;28;20037;-83
2022/09/30 03:26:14;;;;;;;10.35;6.93;;;;;;;;;;5010835;28;20436;-83
2022/09/30 03:28:48;;;;;;;9.80;6.57;;;;;;;;;;4978896;28;20113;-83
2022/09/30 03:31:37;;;;;;;10.82;6.60;;;;;;;;;;4995675;28;20117;-82
2022/09/30 03:34:08;;;;;;;11.05;6.80;;;;;;;;;;4959039;28;20543;-83
2022/09/30 03:36:42;;;;;;;10.50;6.63;;;;;;;;;;4996646;28;20080;-82
2022/09/30 03:39:10;;;;;;;9.77;6.45;;;;;;;;;;4994801;28;20080;-89
2022/09/30 03:41:50;;;;;;;12.10;7.13;;;;;;;;;;5010777;28;20050;-88
2022/09/30 03:44:30;;;;;;;12.40;7.50;;;;;;;;;;4980184;28;20058;-88
2022/09/30 03:46:59;;;;;;;9.98;6.55;;;;;;;;;;4983898;28;20117;-87
2022/09/30 03:49:32;;;;;;;10.57;7.00;;;;;;;;;;4978784;28;20520;-86
2022/09/30 03:51:58;;;;;;;10.40;6.80;;;;;;;;;;4991091;28;20073;-87
2022/09/30 03:54:24;;;;;;;10.93;7.20;;;;;;;;;;4974794;28;20046;-87
2022/09/30 03:56:49;;;;;;;10.40;6.68;;;;;;;;;;4987897;28;20042;-89
2022/09/30 03:59:27;;;;;;;12.20;7.20;;;;;;;;;;4992491;28;20038;-87
2022/09/30 04:01:53;;;;;;;12.07;6.80;;;;;;;;;;4982088;28;20034;-89
2022/09/30 04:04:21;;;;;;;11.48;6.88;;;;;;;;;;4965117;28;20080;-89
2022/09/30 04:06:46;;;;;;;10.85;6.55;;;;;;;;;;4974668;28;20436;-89
2022/09/30 04:09:12;;;;;;;11.02;6.53;;;;;;;;;;4991950;28;20097;-89
2022/09/30 04:11:37;;;;;;;11.52;7.13;;;;;;;;;;4988033;28;20056;-88
2022/09/30 04:14:04;;;;;;;10.32;6.88;;;;;;;;;;4975217;28;20038;-87
2022/09/30 04:16:30;;;;;;;11.40;6.82;;;;;;;;;;4978597;28;20056;-85
2022/09/30 04:18:58;;;;;;;11.25;7.15;;;;;;;;;;4976245;28;20044;-89
2022/09/30 04:21:23;;;;;;;10.85;7.20;;;;;;;;;;4990288;28;20030;-89
2022/09/30 04:23:49;;;;;;;10.63;6.57;;;;;;;;;;4978920;28;20404;-89
2022/09/30 04:26:16;;;;;;;10.55;6.35;;;;;;;;;;4988434;28;20093;-89
2022/09/30 04:28:42;;;;;;;9.85;6.85;;;;;;;;;;4981246;28;20128;-86
2022/09/30 04:31:09;;;;;;;11.88;6.97;;;;;;;;;;4982172;28;20109;-90
2022/09/30 04:33:34;;;;;;;12.52;7.35;;;;;;;;;;4974672;28;20054;-84
2022/09/30 04:36:00;;;;;;;10.55;6.93;;;;;;;;;;4973351;28;20143;-85
2022/09/30 04:38:26;;;;;;;10.93;7.57;;;;;;;;;;4972860;28;20030;-87
2022/09/30 04:40:53;;;;;;;12.65;7.50;;;;;;;;;;4979945;28;20038;-85
2022/09/30 04:43:21;;;;;;;12.27;8.05;;;;;;;;;;4975914;28;20108;-86
2022/09/30 04:45:46;;;;;;;11.90;7.90;;;;;;;;;;4970413;28;20037;-86
2022/09/30 04:48:12;;;;;;;14.73;8.00;;;;;;;;;;4982939;28;20037;-86
2022/09/30 04:50:37;;;;;;;11.90;7.68;;;;;;;;;;4989395;28;20044;-86
2022/09/30 04:53:03;;;;;;;11.70;7.75;;;;;;;;;;4988397;28;20034;-86
2022/09/30 04:55:28;;;;;;;12.52;7.85;;;;;;;;;;4988203;28;20038;-85
2022/09/30 04:57:54;;;;;;;13.65;7.90;;;;;;;;;;4989455;28;20037;-85
2022/09/30 05:00:19;;;;;;;11.35;7.57;;;;;;;;;;4987974;28;20129;-87
2022/09/30 05:02:45;;;;;;;13.23;8.13;;;;;;;;;;4970682;28;20034;-87
2022/09/30 05:05:13;;;;;;;13.32;8.68;;;;;;;;;;4972009;28;20041;-86
2022/09/30 05:07:39;;;;;;;13.45;8.25;;;;;;;;;;4973735;28;20438;-87
2022/09/30 05:10:06;;;;;;;13.85;8.32;;;;;;;;;;4962954;28;20124;-87
2022/09/30 05:12:34;;;;;;;14.73;9.30;;;;;;;;;;4989223;28;20135;-88
2022/09/30 05:15:00;;;;;;;13.60;9.20;;;;;;;;;;4997503;28;20048;-88
2022/09/30 05:17:37;;;;;;;12.85;8.18;;;;;;;;;;4974961;28;20034;-87
2022/09/30 05:20:09;;;;;;;12.57;8.17;;;;;;;;;;4985724;28;20141;-89
2022/09/30 05:22:34;;;;;;;12.88;8.70;;;;;;;;;;4986419;28;20048;-87
2022/09/30 05:25:01;;;;;;;12.73;8.88;;;;;;;;;;4985120;28;20038;-88
2022/09/30 05:27:26;;;;;;;12.65;8.65;;;;;;;;;;4977727;28;20033;-91
2022/09/30 05:29:52;;;;;;;15.57;8.50;;;;;;;;;;4992328;28;20104;-87
2022/09/30 05:32:21;;;;;;;12.70;8.25;;;;;;;;;;4982864;28;20403;-85
2022/09/30 05:34:46;;;;;;;12.55;8.07;;;;;;;;;;4974744;28;20073;-88
2022/09/30 05:37:12;;;;;;;12.77;8.20;;;;;;;;;;4977045;28;20034;-85
2022/09/30 05:39:37;;;;;;;15.20;8.18;;;;;;;;;;4975069;28;20038;-87
2022/09/30 05:42:03;;;;;;;12.38;7.95;;;;;;;;;;4970914;28;20034;-86
2022/09/30 05:44:28;;;;;;;13.50;7.78;;;;;;;;;;4973602;28;20095;-85
2022/09/30 05:46:53;;;;;;;12.20;7.38;;;;;;;;;;4990145;28;20061;-87
2022/09/30 05:49:19;;;;;;;12.57;8.18;;;;;;;;;;5010404;28;20037;-86
2022/09/30 05:51:44;;;;;;;12.32;7.82;;;;;;;;;;4980041;28;20101;-88
2022/09/30 05:54:10;;;;;;;13.57;7.78;;;;;;;;;;4984626;28;20048;-89
2022/09/30 05:56:37;;;;;;;12.82;7.40;;;;;;;;;;4995392;28;20121;-88
2022/09/30 05:59:03;;;;;;;12.25;7.88;;;;;;;;;;4982749;28;20084;-90
2022/09/30 06:01:32;;;;;;;12.25;7.75;;;;;;;;;;4996937;28;20038;-89
2022/09/30 06:03:57;;;;;;;11.38;7.00;;;;;;;;;;4984025;28;20041;-85
2022/09/30 06:06:23;;;;;;;12.13;7.57;;;;;;;;;;4981924;28;20041;-89
2022/09/30 06:08:48;;;;;;;11.65;7.60;;;;;;;;;;4989321;28;20523;-90
2022/09/30 06:11:17;;;;;;;11.20;7.10;;;;;;;;;;4976942;28;20104;-87
2022/09/30 06:13:43;;;;;;;12.23;7.50;;;;;;;;;;4977008;28;20489;-84
2022/09/30 06:16:09;;;;;;;13.05;7.13;;;;;;;;;;4975922;28;20038;-88
2022/09/30 06:18:35;;;;;;;13.65;7.93;;;;;;;;;;4986886;28;20041;-87
2022/09/30 06:21:03;;;;;;;12.73;7.40;;;;;;;;;;4983561;28;20045;-88
2022/09/30 06:23:30;;;;;;;13.23;7.13;;;;;;;;;;4976644;28;20064;-88
2022/09/30 06:25:55;;;;;;;11.18;7.20;;;;;;;;;;5000812;28;20396;-87
2022/09/30 06:28:21;;;;;;;11.05;6.70;;;;;;;;;;4974735;28;20038;-87
2022/09/30 06:30:47;;;;;;;11.15;7.38;;;;;;;;;;4975826;28;20061;-88
2022/09/30 06:33:13;;;;;;;12.07;6.90;;;;;;;;;;4995598;28;20038;-86
2022/09/30 06:35:42;;;;;;;11.95;7.40;;;;;;;;;;4990710;28;20026;-88
2022/09/30 06:38:11;;;;;;;11.63;7.10;;;;;;;;;;4968925;28;20042;-90
2022/09/30 06:40:39;;;;;;;11.40;6.72;;;;;;;;;;4976868;28;20672;-89
2022/09/30 06:43:07;;;;;;;11.93;6.80;;;;;;;;;;4976189;28;20066;-89
2022/09/30 06:45:34;;;;;;;11.27;7.18;;;;;;;;;;4989927;28;20038;-89
2022/09/30 06:48:01;;;;;;;10.68;6.57;;;;;;;;;;4979159;28;20081;-87
2022/09/30 06:50:26;;;;;;;10.88;6.28;;;;;;;;;;4987318;28;20026;-88
2022/09/30 06:52:56;;;;;;;11.73;6.93;;;;;;;;;;4968995;28;20049;-87
2022/09/30 06:55:24;;;;;;;11.60;6.97;;;;;;;;;;4978146;28;20042;-87
2022/09/30 06:57:52;;;;;;;9.68;6.32;;;;;;;;;;4974934;28;20486;-84
2022/09/30 07:00:18;;;;;;;10.73;6.90;;;;;;;;;;4981008;28;20369;-84
2022/09/30 07:02:43;;;;;;;8.73;5.80;;;;;;;;;;4991060;28;20041;-83
2022/09/30 07:05:09;;;;;;;11.48;6.57;;;;;;;;;;4972787;28;20517;-85
2022/09/30 07:07:35;;;;;;;9.90;6.43;;;;;;;;;;4970224;28;20044;-85
2022/09/30 07:10:01;;;;;;;9.00;6.05;;;;;;;;;;4988909;28;20050;-84
2022/09/30 07:12:27;;;;;;;10.02;6.20;;;;;;;;;;4972622;28;20025;-84
2022/09/30 07:14:52;;;;;;;11.38;6.07;;;;;;;;;;4973842;28;20113;-84
2022/09/30 07:17:18;;;;;;;10.52;6.28;;;;;;;;;;4967843;28;20418;-84
2022/09/30 07:19:43;;;;;;;8.65;5.82;;;;;;;;;;4971438;28;20061;-85
2022/09/30 07:22:28;;;;;;;9.45;5.78;;;;;;;;;;4979593;28;20113;-84
2022/09/30 07:24:58;;;;;;;8.68;5.80;;;;;;;;;;4977141;28;20040;-86
2022/09/30 07:27:25;;;;;;;8.65;5.40;;;;;;;;;;4990727;28;20034;-85
2022/09/30 07:29:51;;;;;;;6.93;4.57;;;;;;;;;;4977152;28;20126;-85
2022/09/30 07:32:17;;;;;;;8.88;5.15;;;;;;;;;;4977744;28;20116;-85
2022/09/30 07:34:42;;;;;;;7.57;5.05;;;;;;;;;;4990980;28;20053;-84
2022/09/30 07:37:11;;;;;;;8.43;4.90;;;;;;;;;;4979992;28;20030;-85
2022/09/30 07:39:37;;;;;;;7.22;4.43;;;;;;;;;;4971854;28;20553;-85
2022/09/30 07:42:03;;;;;;;8.35;5.22;;;;;;;;;;4973425;28;20150;-85
2022/09/30 07:44:28;;;;;;;8.20;5.20;;;;;;;;;;4975262;28;20100;-84
2022/09/30 07:46:54;;;;;;;7.75;5.28;;;;;;;;;;4991561;28;20627;-85
2022/09/30 07:49:23;;;;;;;8.80;5.22;;;;;;;;;;4992441;28;20092;-84
2022/09/30 07:51:49;;;;;;;7.38;4.97;;;;;;;;;;4990852;28;20944;-85
2022/09/30 07:54:17;;;;;;;7.65;5.00;;;;;;;;;;4974820;28;20034;-85
2022/09/30 07:56:43;;;;;;;7.07;4.93;;;;;;;;;;4990859;28;20033;-85
2022/09/30 07:59:10;;;;;;;8.70;5.13;;;;;;;;;;4977014;28;20029;-85
2022/09/30 08:01:35;;;;;;;7.10;4.97;;;;;;;;;;4988386;28;20563;-84
2022/09/30 08:04:04;;;;;;;6.80;4.93;;;;;;;;;;4993472;28;20092;-86
2022/09/30 08:06:31;;;;;;;7.28;4.85;;;;;;;;;;4970512;28;20121;-87
2022/09/30 08:08:57;;;;;;;8.80;5.00;;;;;;;;;;4979670;28;20498;-85
2022/09/30 08:11:24;;;;;;;7.45;4.90;;;;;;;;;;4979247;28;20115;-85
2022/09/30 08:13:51;;;;;;;8.27;5.57;;;;;;;;;;4977276;28;20054;-86
2022/09/30 08:16:17;;;;;;;7.60;4.97;;;;;;;;;;4993288;28;20203;-85
2022/09/30 08:18:42;;;;;;;8.50;5.13;;;;;;;;;;4990750;28;20041;-86
2022/09/30 08:21:08;;;;;;;8.55;5.57;;;;;;;;;;4971889;28;20034;-86
2022/09/30 08:23:33;;;;;;;7.35;5.20;;;;;;;;;;4990684;28;20041;-87
2022/09/30 08:26:11;;;;;;;8.98;5.50;;;;;;;;;;4986410;28;20494;-87
2022/09/30 08:28:37;;;;;;;8.52;5.10;;;;;;;;;;4972111;28;20046;-85
2022/09/30 08:31:21;;;;;;;6.80;4.70;;;;;;;;;;4976693;28;20085;-86
2022/09/30 08:33:48;;;;;;;7.40;4.68;;;;;;;;;;4977844;28;20370;-85
2022/09/30 08:36:21;;;;;;;7.68;5.00;;;;;;;;;;4977515;28;20516;-87
2022/09/30 08:38:46;;;;;;;8.35;4.72;;;;;;;;;;4978683;28;20038;-88
2022/09/30 08:41:39;;;;;;;7.35;5.03;;;;;;;;;;4979611;28;20121;-83
2022/09/30 08:44:07;;;;;;;7.60;4.57;;;;;;;;;;4999552;28;20036;-86
2022/09/30 08:46:46;;;;;;;7.18;4.50;;;;;;;;;;4982277;28;20042;-83
2022/09/30 08:49:30;;;;;;;6.80;4.80;;;;;;;;;;4977168;28;20132;-83
2022/09/30 08:51:57;;;;;;;6.00;4.30;;;;;;;;;;4989160;28;20045;-87
2022/09/30 08:54:25;;;;;;;5.35;3.97;;;;;;;;;;4990424;28;20041;-83
2022/09/30 08:56:51;;;;;;;8.23;4.30;;;;;;;;;;4974500;28;20595;-83
2022/09/30 08:59:27;;;;;;;4.72;3.40;;;;;;;;;;4973034;28;20037;-85
2022/09/30 09:02:17;;;;;;;7.25;3.85;;;;;;;;;;4988912;28;20046;-85
2022/09/30 09:04:43;;;;;;;6.13;4.10;;;;;;;;;;4985266;28;20037;-84
2022/09/30 09:07:21;;;;;;;5.35;3.78;;;;;;;;;;4988621;28;20036;-85
2022/09/30 09:09:54;;;;;;;6.10;3.83;;;;;;;;;;4973887;28;20100;-85
2022/09/30 09:12:29;;;;;;;5.60;3.65;;;;;;;;;;4992774;28;20044;-84
2022/09/30 09:14:57;;;;;;;7.50;4.47;;;;;;;;;;4988858;28;20042;-85
2022/09/30 09:17:40;;;;;;;5.97;3.95;;;;;;;;;;4993579;28;20381;-84
2022/09/30 09:20:17;;;;;;;5.50;3.80;;;;;;;;;;5008813;28;20037;-83
2022/09/30 09:22:43;;;;;;;5.90;4.13;;;;;;;;;;4972059;28;20057;-82
2022/09/30 09:25:13;;;;;;;6.43;3.92;;;;;;;;;;4986261;28;20037;-85
2022/09/30 09:27:54;;;;;;;4.82;3.75;;;;;;;;;;4974320;28;20049;-86
2022/09/30 09:30:21;;;;;;;5.45;3.90;;;;;;;;;;4978148;28;20413;-86
2022/09/30 09:32:56;;;;;;;5.68;4.00;;;;;;;;;;4973282;28;20100;-87
2022/09/30 09:35:33;;;;;;;6.22;4.00;;;;;;;;;;4976083;28;20418;-84
2022/09/30 09:41:19;;;;;;;5.72;3.92;;;;;;;;;;5005026;28;19921;-83
2022/09/30 09:44:13;;;;;;;6.40;4.18;;;;;;;;;;4976180;28;20493;-83
2022/09/30 09:46:50;;;;;;;7.55;4.30;;;;;;;;;;4960980;28;20088;-84
2022/09/30 09:49:30;;;;;;;6.07;3.92;;;;;;;;;;4987852;28;20485;-84
2022/09/30 09:52:24;;;;;;;6.68;4.55;;;;;;;;;;4970715;28;20118;-84
2022/09/30 09:54:51;;;;;;;11.35;4.25;;;;;;;;;;4974976;28;20045;-85
2022/09/30 09:57:24;;;;;;;6.35;3.95;;;;;;;;;;4980002;28;20038;-86
2022/09/30 09:59:58;;;;;;;5.30;4.13;;;;;;;;;;5004328;28;20049;-86
2022/09/30 10:02:26;;;;;;;7.28;4.57;;;;;;;;;;4984774;28;20049;-84
2022/09/30 10:04:58;;;;;;;8.80;5.40;;;;;;;;;;4967594;28;20040;-87
2022/09/30 10:07:26;;;;;;;6.13;3.85;;;;;;;;;;4989999;28;20374;-86
2022/09/30 10:10:17;;;;;;;8.52;4.63;;;;;;;;;;4979607;28;20045;-86
2022/09/30 10:12:44;;;;;;;7.65;4.38;;;;;;;;;;4967667;28;20105;-85
2022/09/30 10:15:17;;;;;;;6.22;4.63;;;;;;;;;;4988739;28;20455;-88
2022/09/30 10:17:49;;;;;;;8.85;4.50;;;;;;;;;;4989192;28;20038;-85
2022/09/30 10:20:15;;;;;;;5.85;4.03;;;;;;;;;;4976043;28;20446;-87
2022/09/30 10:22:41;;;;;;;7.07;3.70;;;;;;;;;;4995697;28;20124;-85
2022/09/30 10:25:21;;;;;;;6.30;3.55;;;;;;;;;;4987232;28;20378;-85
2022/09/30 10:28:01;;;;;;;5.35;3.25;;;;;;;;;;4990553;28;20042;-87
2022/09/30 10:30:44;;;;;;;4.55;3.05;;;;;;;;;;4969832;28;20045;-87
2022/09/30 10:33:40;;;;;;;6.82;3.38;;;;;;;;;;4988422;28;20108;-88
2022/09/30 10:36:08;;;;;;;5.78;3.10;;;;;;;;;;4966402;28;20034;-86
2022/09/30 10:38:34;;;;;;;4.40;2.95;;;;;;;;;;5008418;28;20501;-86
2022/09/30 10:41:01;;;;;;;5.72;3.20;;;;;;;;;;4991794;28;20501;-87
2022/09/30 10:43:53;;;;;;;5.15;3.05;;;;;;;;;;4987655;28;20055;-86
2022/09/30 10:46:52;;;;;;;4.13;2.40;;;;;;;;;;4989463;28;20034;-85
2022/09/30 10:49:38;;;;;;;4.78;2.67;;;;;;;;;;4959855;28;20548;-88
2022/09/30 10:52:04;;;;;;;4.25;2.38;;;;;;;;;;4989886;28;20033;-87
2022/09/30 10:54:38;;;;;;;4.00;2.28;;;;;;;;;;4992927;28;20049;-86
2022/09/30 10:57:04;;;;;;;3.92;1.98;;;;;;;;;;5005386;28;20493;-85
2022/09/30 10:59:36;;;;;;;4.18;2.15;;;;;;;;;;5002127;28;20116;-85
2022/09/30 11:02:17;;;;;;;3.80;2.17;;;;;;;;;;4973458;28;20671;-84
2022/09/30 11:04:49;;;;;;;5.72;2.65;;;;;;;;;;4995958;28;20129;-84
2022/09/30 11:07:19;;;;;;;4.00;2.00;;;;;;;;;;4970791;28;20034;-85
2022/09/30 11:09:56;;;;;;;5.65;2.03;;;;;;;;;;5002610;28;20076;-84
2022/09/30 11:12:31;;;;;;;3.03;1.77;;;;;;;;;;4972266;28;20042;-85
2022/09/30 11:15:15;;;;;;;3.95;1.40;;;;;;;;;;4948791;28;20553;-86
2022/09/30 11:17:46;;;;;;;3.08;1.35;;;;;;;;;;4950625;28;20071;-85
2022/09/30 11:20:18;;;;;;;2.72;1.30;;;;;;;;;;4978752;28;20034;-86
2022/09/30 11:23:11;;;;;;;3.45;1.73;;;;;;;;;;4968050;28;20176;-84
2022/09/30 11:25:49;;;;;;;7.93;2.08;;;;;;;;;;4976915;28;20035;-86
2022/09/30 11:28:43;;;;;;;3.75;1.25;;;;;;;;;;4966460;28;20038;-87
2022/09/30 11:31:18;;;;;;;2.03;0.90;;;;;;;;;;4978030;28;20042;-87
2022/09/30 11:33:56;;;;;;;2.20;1.00;;;;;;;;;;4977260;28;20464;-85
2022/09/30 11:36:47;;;;;;;4.10;1.50;;;;;;;;;;4975498;28;20101;-86
2022/09/30 11:39:22;;;;;;;3.10;1.10;;;;;;;;;;4979346;28;20038;-84
2022/09/30 11:42:10;;;;;;;2.47;0.90;;;;;;;;;;4985969;28;20077;-86
2022/09/30 11:44:40;;;;;;;2.55;1.23;;;;;;;;;;4979236;28;20031;-86
2022/09/30 11:47:25;;;;;;;2.38;1.00;;;;;;;;;;4976298;28;20056;-86
2022/09/30 11:50:27;;;;;;;2.60;1.20;;;;;;;;;;4968564;28;20081;-86
2022/09/30 11:53:13;;;;;;;3.25;1.05;;;;;;;;;;4987263;28;20035;-86
2022/09/30 11:55:56;;;;;;;3.37;1.03;;;;;;;;;;4985481;28;20030;-87
2022/09/30 11:58:27;;;;;;;2.63;1.00;;;;;;;;;;4971850;28;20288;-86
2022/09/30 12:01:05;;;;;;;2.45;0.93;;;;;;;;;;4949034;28;20027;-85
2022/09/30 12:03:38;;;;;;;1.90;0.82;;;;;;;;;;4978066;28;20037;-85
2022/09/30 12:06:10;;;;;;;3.63;1.20;;;;;;;;;;4977495;28;20414;-86
2022/09/30 12:08:46;;;;;;;2.25;1.10;;;;;;;;;;4970389;28;20039;-85
2022/09/30 12:11:27;;;;;;;2.20;0.98;;;;;;;;;;4985942;28;20042;-84
2022/09/30 12:13:56;;;;;;;2.97;1.20;;;;;;;;;;4982679;28;20042;-85
2022/09/30 12:16:28;;;;;;;3.45;1.33;;;;;;;;;;4976025;28;20519;-85
2022/09/30 12:18:56;;;;;;;3.38;1.42;;;;;;;;;;4973864;28;20547;-86
2022/09/30 12:21:38;;;;;;;2.47;1.00;;;;;;;;;;4992134;28;20033;-84
2022/09/30 12:24:22;;;;;;;3.88;1.13;;;;;;;;;;4966687;28;20120;-86
2022/09/30 12:26:50;;;;;;;2.30;1.00;;;;;;;;;;4975659;28;20112;-85
2022/09/30 12:32:34;;;;;;;2.40;0.90;;;;;;;;;;4997206;28;20088;-86
2022/09/30 12:35:18;;;;;;;2.50;0.90;;;;;;;;;;4975024;28;20088;-85
2022/09/30 12:38:05;;;;;;;2.22;0.90;;;;;;;;;;4974915;28;20039;-87
2022/09/30 12:41:01;;;;;;;9.65;2.17;;;;;;;;;;5006499;28;20045;-84
2022/09/30 12:43:41;;;;;;;3.33;1.20;;;;;;;;;;4987694;28;20454;-85
2022/09/30 12:53:12;;;;;;;;;;;;;;;;;;;;;
2022/09/30 12:56:24;;;;;;;2.13;1.05;;;;;;;;;;4902708;28;21668;-89
2022/09/30 12:59:08;;;;;;;3.08;1.20;;;;;;;;;;4897913;28;20495;-89
2022/09/30 13:02:27;;;;;;;2.67;0.93;;;;;;;;;;4889947;29;20734;-91
2022/09/30 13:08:40;;;;;;;2.55;0.90;;;;;;;;;;4932910;28;20093;-89
2022/09/30 13:18:25;;;;;;;2.30;1.00;;;;;;;;;;4983099;28;20049;-89
2022/09/30 13:20:55;;;;;;;1.92;0.90;;;;;;;;;;4986363;28;20037;-90
2022/09/30 13:23:39;;;;;;;2.55;1.08;;;;;;;;;;4971604;28;20137;-89
2022/09/30 13:26:33;;;;;;;3.05;0.88;;;;;;;;;;4989062;28;20037;-89
2022/09/30 13:28:58;;;;;;;1.45;0.60;;;;;;;;;;4984652;28;20523;-90
2022/09/30 13:31:28;;;;;;;1.80;0.70;;;;;;;;;;4977137;28;20042;-89
2022/09/30 13:34:02;;;;;;;2.03;0.80;;;;;;;;;;4960557;28;20030;-91
2022/09/30 13:36:31;;;;;;;3.45;1.05;;;;;;;;;;4980908;28;20448;-90
2022/09/30 13:39:24;;;;;;;2.22;0.90;;;;;;;;;;4977472;28;20038;-92
2022/09/30 13:41:59;;;;;;;2.13;0.95;;;;;;;;;;4991089;28;20049;-92
2022/09/30 13:44:33;;;;;;;1.77;0.82;;;;;;;;;;5005203;28;20049;-92
2022/09/30 13:47:08;;;;;;;2.95;0.90;;;;;;;;;;4991468;28;20420;-91
2022/09/30 13:49:46;;;;;;;2.92;1.05;;;;;;;;;;4964481;28;20116;-92
2022/09/30 13:52:19;;;;;;;2.25;0.85;;;;;;;;;;4970377;28;20574;-93
2022/09/30 13:54:47;;;;;;;2.17;0.85;;;;;;;;;;4952208;28;20037;-84
2022/09/30 13:57:24;;;;;;;3.67;0.95;;;;;;;;;;4982622;28;20121;-82
2022/09/30 14:00:07;;;;;;;3.22;0.80;;;;;;;;;;4966502;28;20559;-83
2022/09/30 14:02:51;;;;;;;2.53;0.60;;;;;;;;;;4970196;28;20042;-83
2022/09/30 14:05:27;;;;;;;1.27;0.60;;;;;;;;;;4999995;28;20107;-83
2022/09/30 14:08:11;;;;;;;1.55;0.70;;;;;;;;;;4974547;28;20065;-82
2022/09/30 14:10:57;;;;;;;1.88;0.70;;;;;;;;;;4990297;28;20045;-83
2022/09/30 14:13:26;;;;;;;2.22;0.77;;;;;;;;;;5004455;28;20053;-82
2022/09/30 14:16:05;;;;;;;1.70;0.68;;;;;;;;;;5006115;28;20042;-83
2022/09/30 14:18:54;;;;;;;1.92;0.73;;;;;;;;;;5004232;28;20088;-82
2022/09/30 14:21:58;;;;;;;1.25;0.60;;;;;;;;;;5004964;28;20044;-83
2022/09/30 14:24:24;;;;;;;2.55;0.80;;;;;;;;;;4944025;28;20071;-82
2022/09/30 14:27:15;;;;;;;1.90;0.90;;;;;;;;;;4961111;28;20138;-83
2022/09/30 14:30:03;;;;;;;3.25;0.82;;;;;;;;;;4993067;28;20042;-83
2022/09/30 14:32:58;;;;;;;1.67;0.70;;;;;;;;;;4988601;28;20034;-82
2022/09/30 14:35:33;;;;;;;1.75;0.70;;;;;;;;;;4962759;28;20394;-83
2022/09/30 14:38:05;;;;;;;1.17;0.63;;;;;;;;;;4984471;28;20033;-83
2022/09/30 14:40:33;;;;;;;1.45;0.63;;;;;;;;;;4960827;28;20556;-82
2022/09/30 14:43:01;;;;;;;2.20;0.70;;;;;;;;;;4960900;28;20037;-82
2022/09/30 14:45:30;;;;;;;1.65;0.80;;;;;;;;;;4975046;28;20131;-83
2022/09/30 14:47:59;;;;;;;1.88;0.80;;;;;;;;;;4972079;28;20113;-82
2022/09/30 14:50:32;;;;;;;2.15;0.75;;;;;;;;;;4977115;28;20026;-82
2022/09/30 14:52:59;;;;;;;1.90;0.70;;;;;;;;;;4971030;28;20054;-83
2022/09/30 14:55:32;;;;;;;2.25;0.88;;;;;;;;;;4988927;28;20037;-82
2022/09/30 14:58:21;;;;;;;1.90;0.70;;;;;;;;;;4989640;28;20111;-83
2022/09/30 15:01:01;;;;;;;3.47;0.75;;;;;;;;;;4992772;28;20058;-82
2022/09/30 15:03:27;;;;;;;2.50;0.90;;;;;;;;;;4983505;28;20041;-82
2022/09/30 15:05:52;;;;;;;2.05;0.60;;;;;;;;;;4980326;28;20030;-82
2022/09/30 15:08:20;;;;;;;1.90;0.70;;;;;;;;;;4990146;28;20481;-82
2022/09/30 15:10:50;;;;;;;2.63;0.70;;;;;;;;;;4970436;28;20045;-82
2022/09/30 15:13:17;;;;;;;2.10;0.82;;;;;;;;;;4987932;28;20493;-83
2022/09/30 15:15:43;;;;;;;3.55;0.98;;;;;;;;;;4963365;28;20034;-83
2022/09/30 15:18:29;;;;;;;1.85;0.80;;;;;;;;;;4972843;28;20046;-83
2022/09/30 15:20:57;;;;;;;1.85;0.80;;;;;;;;;;5004752;28;20034;-83
2022/09/30 15:23:31;;;;;;;1.67;0.75;;;;;;;;;;4994844;28;20459;-83
2022/09/30 15:25:57;;;;;;;3.47;0.85;;;;;;;;;;4969743;28;20034;-83
2022/09/30 15:28:22;;;;;;;2.42;0.80;;;;;;;;;;4972919;28;20044;-83
2022/09/30 15:30:52;;;;;;;1.55;0.68;;;;;;;;;;4987995;28;20698;-84
2022/09/30 15:33:21;;;;;;;2.92;0.60;;;;;;;;;;4977361;28;20074;-84
2022/09/30 15:35:46;;;;;;;2.00;0.80;;;;;;;;;;5007586;28;20385;-84